Jackson, MS (39296)

3:07 AM CDT on July 29, 2014 (GMT -0500)
Brinkly (KMSJACKS3) Elev 344 ft | 32.35 °N, 90.20 °W | Change Station

Current weather conditions updated 15 minutes ago

Clear
Clear
71.8 °F
Feels Like 71.8 °F
N
0.0
Wind Variable Wind from ESE

Today is forecast to be Cooler than yesterday.

Today
High -- | Low -- °F
--% Chance of Precip.
Yesterday
High -- | Low -- °F
Precip. -- in
6:13 AM 8:00 PM
Waxing Crescent, 5% visible
Pressure 30.00 in
Visibility 10.0 miles
Clouds Clear
Dew Point 71 °F
Humidity 98%
Rainfall 0.00 in
Snow Depth Not available.
UV 0 out of 12
Pollen 4.10 out of 12
Air Quality Not available.
Flu Activity Not available.
METAR KHKS 290753Z AUTO 00000KT 10SM CLR 22/17 A3002 RMK AO2 SLP157 T02220172

More Conditions Fewer Conditions

Pressure 30.00 in
Visibility 10.0 miles
Clouds Clear
Dew Point 71 °F
Humidity 98%
Rainfall 0.00 in
Snow Depth Not available.
UV 0 out of 12
Pollen 4.10 out of 12
Air Quality Not available.
Flu Activity Not available.
METAR KHKS 290753Z AUTO 00000KT 10SM CLR 22/17 A3002 RMK AO2 SLP157 T02220172

More Conditions Fewer Conditions

10-Day Weather Forecast

Almanac

Astronomy

Jul. 29, 2014 Rise Set
Actual Time 6:13 AM CDT 8:00 PM CDT
Civil Twilight 5:46 AM CDT 8:27 PM CDT
Nautical Twilight 5:13 AM CDT 8:59 PM CDT
Astronomical Twilight 4:39 AM CDT 9:34 PM CDT
Moon 8:38 AM CDT 9:26 PM CDT
Length of Visible Light 14h 40m
Length of Day
13h 47m
Tomorrow will be 1m 24s shorter.
Waxing Crescent, 5% of the Moon is Illuminated
Today
Waxing Crescent
Aug 3
First Quarter
Aug 10
Full
Aug 17
Last Quarter
Aug 25
New

Today's Extremes

State Highs State Lows

Community

WunderPhotos

Upload Photos

1,738,651 photos uploaded!

Nearby

Snow Depth

Station Depth Elevation
No new snow has been reported.

Earthquake Activity

City Distance Mag. Time & Date
No recent earthquake activity has been reported nearby.
Minimum magnitude displayed is 2.5.

Coastal Water Temperatures

Place Temperature
No Stations Reporting

Nearby Weather Stations

Station Location Temp. Dew Point Humidity Wind Precip. Elev Updated Type
Brinkly, Jackson, MS 71.8 °F 71 °F 98% ESE  at  0.0 mph - / hr 344 ft 2:52 AM CDT Normal
Country Meadows, Brandon, MS 66.2 °F 64 °F 92% WNW  at  0.0 mph - / hr 367 ft 2:59 AM CDT Normal
Raintree Place, Brandon, MS 70.3 °F 66 °F 85% South  at  1.1 mph - / hr 410 ft 2:55 AM CDT Normal
Red Oak, Gluckstadt, MS 69.5 °F 66 °F 88% NNE  at  0.0 mph 0.00 in / hr 289 ft 3:07 AM CDT Rapid Fire
May Estates, Brandon, MS 67.6 °F 62 °F 82% NW  at  0.0 mph 0.00 in / hr 380 ft 3:07 AM CDT Rapid Fire
Tank, Crystal Springs, MS 65.8 °F 65 °F 98% ESE  at  0.0 mph - / hr 338 ft 3:04 AM CDT Normal
Leesburg, Morton, MS 65.0 °F 63 °F 93% NW  at  0.0 mph 0.00 in / hr 404 ft 2:54 AM CDT Normal

Show More Stations Show Fewer Stations